sensor_id;sensor_type;location;lat;lon;timestamp;pressure;altitude;pressure_sealevel;temperature;humidity
67397;BME280;57728;50.448;18.824;2023-02-28T00:01:28;98928.81;;;1.34;48.76
67397;BME280;57728;50.448;18.824;2023-02-28T00:03:30;98958.94;;;1.56;49.14
67397;BME280;57728;50.448;18.824;2023-02-28T00:05:36;99050.00;;;2.13;49.00
67397;BME280;57728;50.448;18.824;2023-02-28T00:07:38;98938.94;;;1.40;49.20
67397;BME280;57728;50.448;18.824;2023-02-28T00:09:40;99063.13;;;2.16;49.14
67397;BME280;57728;50.448;18.824;2023-02-28T00:11:42;98870.84;;;0.95;49.23
67397;BME280;57728;50.448;18.824;2023-02-28T00:13:46;99067.81;;;2.14;49.49
67397;BME280;57728;50.448;18.824;2023-02-28T00:15:58;98942.09;;;1.26;49.52
67397;BME280;57728;50.448;18.824;2023-02-28T00:18:05;99071.50;;;2.13;49.50
67397;BME280;57728;50.448;18.824;2023-02-28T00:20:09;99018.66;;;1.85;49.49
67397;BME280;57728;50.448;18.824;2023-02-28T00:22:12;99069.13;;;2.10;49.72
67397;BME280;57728;50.448;18.824;2023-02-28T00:24:14;98997.44;;;1.64;49.93
67397;BME280;57728;50.448;18.824;2023-02-28T00:26:16;99081.31;;;2.04;50.11
67397;BME280;57728;50.448;18.824;2023-02-28T00:28:20;99070.88;;;2.01;50.31
67397;BME280;57728;50.448;18.824;2023-02-28T00:30:23;99043.81;;;1.84;50.36
67397;BME280;57728;50.448;18.824;2023-02-28T00:32:25;99071.16;;;1.98;50.47
67397;BME280;57728;50.448;18.824;2023-02-28T00:34:26;99067.94;;;1.94;50.42
67397;BME280;57728;50.448;18.824;2023-02-28T00:36:30;99009.38;;;1.52;50.69
67397;BME280;57728;50.448;18.824;2023-02-28T00:38:32;98898.31;;;0.79;50.78
67397;BME280;57728;50.448;18.824;2023-02-28T00:40:35;99065.16;;;1.86;50.74
67397;BME280;57728;50.448;18.824;2023-02-28T00:42:37;99011.63;;;1.47;51.11
67397;BME280;57728;50.448;18.824;2023-02-28T00:44:39;98962.19;;;1.22;51.26
67397;BME280;57728;50.448;18.824;2023-02-28T00:46:41;98998.38;;;1.45;51.06
67397;BME280;57728;50.448;18.824;2023-02-28T00:48:43;99021.34;;;1.58;51.23
67397;BME280;57728;50.448;18.824;2023-02-28T00:50:48;98967.31;;;1.15;51.26
67397;BME280;57728;50.448;18.824;2023-02-28T00:52:50;98955.06;;;1.02;51.50
67397;BME280;57728;50.448;18.824;2023-02-28T00:54:53;98935.38;;;0.84;51.49
67397;BME280;57728;50.448;18.824;2023-02-28T00:56:54;99042.06;;;1.37;51.55
67397;BME280;57728;50.448;18.824;2023-02-28T00:58:55;99071.09;;;1.52;51.51
67397;BME280;57728;50.448;18.824;2023-02-28T01:00:58;98908.84;;;0.43;51.60
67397;BME280;57728;50.448;18.824;2023-02-28T01:03:00;98892.78;;;0.33;51.89
67397;BME280;57728;50.448;18.824;2023-02-28T01:05:01;98878.84;;;0.30;52.28
67397;BME280;57728;50.448;18.824;2023-02-28T01:07:05;98915.03;;;0.44;52.42
67397;BME280;57728;50.448;18.824;2023-02-28T01:09:08;98900.09;;;0.41;52.53
67397;BME280;57728;50.448;18.824;2023-02-28T01:11:12;98988.25;;;0.92;52.52
67397;BME280;57728;50.448;18.824;2023-02-28T01:13:16;99045.88;;;1.35;52.63
67397;BME280;57728;50.448;18.824;2023-02-28T01:15:18;98937.44;;;0.62;52.69
67397;BME280;57728;50.448;18.824;2023-02-28T01:17:19;98990.78;;;0.93;52.78
67397;BME280;57728;50.448;18.824;2023-02-28T01:19:22;98991.38;;;0.87;52.82
67397;BME280;57728;50.448;18.824;2023-02-28T01:21:23;98878.88;;;0.10;53.16
67397;BME280;57728;50.448;18.824;2023-02-28T01:23:25;99082.03;;;1.31;53.25
67397;BME280;57728;50.448;18.824;2023-02-28T01:25:28;98992.09;;;0.89;53.13
67397;BME280;57728;50.448;18.824;2023-02-28T01:27:29;99062.97;;;1.34;53.09
67397;BME280;57728;50.448;18.824;2023-02-28T01:29:30;99055.78;;;1.34;53.25
67397;BME280;57728;50.448;18.824;2023-02-28T01:31:33;99039.88;;;1.13;53.50
67397;BME280;57728;50.448;18.824;2023-02-28T01:33:35;98995.19;;;0.94;53.40
67397;BME280;57728;50.448;18.824;2023-02-28T01:35:38;98792.41;;;-0.29;53.36
67397;BME280;57728;50.448;18.824;2023-02-28T01:37:40;98877.59;;;0.14;53.27
67397;BME280;57728;50.448;18.824;2023-02-28T01:39:41;98870.69;;;0.12;53.46
67397;BME280;57728;50.448;18.824;2023-02-28T01:41:43;99062.28;;;1.32;53.44
67397;BME280;57728;50.448;18.824;2023-02-28T01:45:47;98932.50;;;0.38;53.51
67397;BME280;57728;50.448;18.824;2023-02-28T01:47:51;98840.69;;;-0.02;53.55
67397;BME280;57728;50.448;18.824;2023-02-28T01:50:01;98883.19;;;0.21;53.50
67397;BME280;57728;50.448;18.824;2023-02-28T01:52:06;98941.09;;;0.61;53.47
67397;BME280;57728;50.448;18.824;2023-02-28T01:54:29;99058.47;;;1.34;53.68
67397;BME280;57728;50.448;18.824;2023-02-28T01:56:36;98987.44;;;0.91;53.63
67397;BME280;57728;50.448;18.824;2023-02-28T01:58:39;98983.47;;;0.95;53.80
67397;BME280;57728;50.448;18.824;2023-02-28T02:00:41;99002.50;;;1.02;53.91
67397;BME280;57728;50.448;18.824;2023-02-28T02:02:48;98900.81;;;0.33;53.76
67397;BME280;57728;50.448;18.824;2023-02-28T02:05:03;98981.09;;;0.92;53.69
67397;BME280;57728;50.448;18.824;2023-02-28T02:07:12;99050.00;;;1.29;53.92
67397;BME280;57728;50.448;18.824;2023-02-28T02:09:20;99047.03;;;1.23;53.96
67397;BME280;57728;50.448;18.824;2023-02-28T02:11:23;98895.06;;;0.28;53.81
67397;BME280;57728;50.448;18.824;2023-02-28T02:18:47;98890.03;;;0.06;54.20
67397;BME280;57728;50.448;18.824;2023-02-28T02:32:35;98908.63;;;-0.22;54.72
67397;BME280;57728;50.448;18.824;2023-02-28T02:37:02;99048.44;;;0.50;54.83
67397;BME280;57728;50.448;18.824;2023-02-28T02:39:18;99046.75;;;0.49;55.04
67397;BME280;57728;50.448;18.824;2023-02-28T02:41:50;98996.84;;;0.09;55.01
67397;BME280;57728;50.448;18.824;2023-02-28T02:44:05;99057.75;;;0.36;55.25
67397;BME280;57728;50.448;18.824;2023-02-28T02:46:24;99039.13;;;0.25;55.25
67397;BME280;57728;50.448;18.824;2023-02-28T02:48:40;99066.47;;;0.48;55.49
67397;BME280;57728;50.448;18.824;2023-02-28T02:50:58;99051.25;;;0.39;55.37
67397;BME280;57728;50.448;18.824;2023-02-28T02:53:22;98888.59;;;-0.57;55.29
67397;BME280;57728;50.448;18.824;2023-02-28T02:56:05;98949.75;;;-0.23;55.48
67397;BME280;57728;50.448;18.824;2023-02-28T02:58:15;98946.63;;;-0.28;55.50
67397;BME280;57728;50.448;18.824;2023-02-28T03:00:30;98921.53;;;-0.47;55.59
67397;BME280;57728;50.448;18.824;2023-02-28T03:02:41;98897.31;;;-0.65;55.48
67397;BME280;57728;50.448;18.824;2023-02-28T03:04:56;98895.03;;;-0.70;55.64
67397;BME280;57728;50.448;18.824;2023-02-28T03:07:08;99051.94;;;0.21;55.77
67397;BME280;57728;50.448;18.824;2023-02-28T03:09:10;99051.09;;;0.21;56.05
67397;BME280;57728;50.448;18.824;2023-02-28T03:11:20;99011.34;;;-0.04;55.89
67397;BME280;57728;50.448;18.824;2023-02-28T03:13:55;99040.53;;;0.19;56.21
67397;BME280;57728;50.448;18.824;2023-02-28T03:27:12;98994.38;;;-0.33;56.51
67397;BME280;57728;50.448;18.824;2023-02-28T03:29:37;99050.66;;;-0.04;56.74
67397;BME280;57728;50.448;18.824;2023-02-28T03:32:21;99057.13;;;-0.07;56.82
67397;BME280;57728;50.448;18.824;2023-02-28T03:34:36;98862.75;;;-1.38;56.67
67397;BME280;57728;50.448;18.824;2023-02-28T03:37:08;99003.50;;;-0.46;56.92
67397;BME280;57728;50.448;18.824;2023-02-28T03:39:31;99017.88;;;-0.37;56.97
67397;BME280;57728;50.448;18.824;2023-02-28T03:41:54;99033.66;;;-0.34;56.81
67397;BME280;57728;50.448;18.824;2023-02-28T03:44:45;99067.69;;;-0.15;56.88
67397;BME280;57728;50.448;18.824;2023-02-28T03:47:08;98970.47;;;-0.76;57.12
67397;BME280;57728;50.448;18.824;2023-02-28T03:49:38;99063.72;;;-0.21;57.34
67397;BME280;57728;50.448;18.824;2023-02-28T03:51:47;99053.09;;;-0.42;57.21
67397;BME280;57728;50.448;18.824;2023-02-28T03:54:04;98829.16;;;-1.71;57.31
67397;BME280;57728;50.448;18.824;2023-02-28T04:00:55;99014.00;;;-0.64;57.42
67397;BME280;57728;50.448;18.824;2023-02-28T04:03:10;99043.22;;;-0.41;57.37
67397;BME280;57728;50.448;18.824;2023-02-28T04:05:12;98922.19;;;-1.15;57.45
67397;BME280;57728;50.448;18.824;2023-02-28T04:07:15;98934.63;;;-1.04;57.45
67397;BME280;57728;50.448;18.824;2023-02-28T04:09:17;98995.81;;;-0.70;57.45
67397;BME280;57728;50.448;18.824;2023-02-28T04:11:32;99070.91;;;-0.21;57.62
67397;BME280;57728;50.448;18.824;2023-02-28T04:13:43;98949.94;;;-1.06;57.40
67397;BME280;57728;50.448;18.824;2023-02-28T04:15:44;99073.13;;;-0.26;57.47
67397;BME280;57728;50.448;18.824;2023-02-28T04:17:48;98943.38;;;-1.23;57.58
67397;BME280;57728;50.448;18.824;2023-02-28T04:19:51;98917.47;;;-1.32;57.59
67397;BME280;57728;50.448;18.824;2023-02-28T04:21:59;99082.84;;;-0.35;57.80
67397;BME280;57728;50.448;18.824;2023-02-28T04:24:13;99073.94;;;-0.36;57.92
67397;BME280;57728;50.448;18.824;2023-02-28T04:26:36;99022.25;;;-0.77;57.79
67397;BME280;57728;50.448;18.824;2023-02-28T04:28:44;99083.25;;;-0.30;58.04
67397;BME280;57728;50.448;18.824;2023-02-28T04:31:18;98945.72;;;-1.09;57.83
67397;BME280;57728;50.448;18.824;2023-02-28T04:33:27;99035.44;;;-0.54;57.88
67397;BME280;57728;50.448;18.824;2023-02-28T04:35:41;98948.91;;;-1.15;58.02
67397;BME280;57728;50.448;18.824;2023-02-28T04:37:53;98857.75;;;-1.83;57.98
67397;BME280;57728;50.448;18.824;2023-02-28T04:40:03;99086.34;;;-0.35;58.11
67397;BME280;57728;50.448;18.824;2023-02-28T04:42:10;98905.44;;;-1.48;58.01
67397;BME280;57728;50.448;18.824;2023-02-28T04:44:14;99060.34;;;-0.63;58.20
67397;BME280;57728;50.448;18.824;2023-02-28T04:46:18;98946.72;;;-1.31;58.29
67397;BME280;57728;50.448;18.824;2023-02-28T04:48:23;98982.69;;;-1.14;58.30
67397;BME280;57728;50.448;18.824;2023-02-28T04:50:26;98996.09;;;-1.04;58.22
67397;BME280;57728;50.448;18.824;2023-02-28T04:52:30;98946.88;;;-1.32;58.21
67397;BME280;57728;50.448;18.824;2023-02-28T04:54:32;99109.69;;;-0.46;58.09
67397;BME280;57728;50.448;18.824;2023-02-28T04:56:34;98920.88;;;-1.51;58.07
67397;BME280;57728;50.448;18.824;2023-02-28T04:58:36;98987.34;;;-1.16;58.43
67397;BME280;57728;50.448;18.824;2023-02-28T05:00:38;99068.16;;;-0.72;58.46
67397;BME280;57728;50.448;18.824;2023-02-28T05:02:41;99060.16;;;-0.72;58.60
67397;BME280;57728;50.448;18.824;2023-02-28T05:04:44;98991.16;;;-1.09;58.42
67397;BME280;57728;50.448;18.824;2023-02-28T05:06:46;99093.59;;;-0.56;58.69
67397;BME280;57728;50.448;18.824;2023-02-28T05:08:47;99072.09;;;-0.76;58.61
67397;BME280;57728;50.448;18.824;2023-02-28T05:10:49;99105.00;;;-0.54;58.47
67397;BME280;57728;50.448;18.824;2023-02-28T05:12:51;98922.59;;;-1.71;58.66
67397;BME280;57728;50.448;18.824;2023-02-28T05:14:52;98923.47;;;-1.71;58.49
67397;BME280;57728;50.448;18.824;2023-02-28T05:16:56;98997.84;;;-1.24;58.58
67397;BME280;57728;50.448;18.824;2023-02-28T05:18:57;98931.13;;;-1.57;58.67
67397;BME280;57728;50.448;18.824;2023-02-28T05:21:00;98930.94;;;-1.65;58.70
67397;BME280;57728;50.448;18.824;2023-02-28T05:23:05;98986.75;;;-1.41;58.70
67397;BME280;57728;50.448;18.824;2023-02-28T05:25:12;98886.72;;;-2.00;58.80
67397;BME280;57728;50.448;18.824;2023-02-28T05:27:21;98995.72;;;-1.42;58.93
67397;BME280;57728;50.448;18.824;2023-02-28T05:29:24;98966.34;;;-1.63;58.81
67397;BME280;57728;50.448;18.824;2023-02-28T05:31:25;99055.19;;;-1.07;58.85
67397;BME280;57728;50.448;18.824;2023-02-28T05:33:27;98927.63;;;-1.99;58.86
67397;BME280;57728;50.448;18.824;2023-02-28T05:35:29;99084.88;;;-1.00;59.07
67397;BME280;57728;50.448;18.824;2023-02-28T05:37:30;99110.31;;;-0.85;59.17
67397;BME280;57728;50.448;18.824;2023-02-28T05:39:32;99132.94;;;-0.89;59.30
67397;BME280;57728;50.448;18.824;2023-02-28T05:41:34;99115.22;;;-0.90;58.94
67397;BME280;57728;50.448;18.824;2023-02-28T05:43:37;99061.22;;;-1.26;59.01
67397;BME280;57728;50.448;18.824;2023-02-28T05:45:38;99098.84;;;-1.18;59.02
67397;BME280;57728;50.448;18.824;2023-02-28T05:47:41;98998.84;;;-1.79;59.04
67397;BME280;57728;50.448;18.824;2023-02-28T05:49:42;99061.34;;;-1.28;59.22
67397;BME280;57728;50.448;18.824;2023-02-28T05:51:44;99069.56;;;-1.19;59.10
67397;BME280;57728;50.448;18.824;2023-02-28T05:53:46;99016.72;;;-1.58;59.05
67397;BME280;57728;50.448;18.824;2023-02-28T05:55:49;99051.53;;;-1.27;59.01
67397;BME280;57728;50.448;18.824;2023-02-28T05:57:51;99066.50;;;-1.15;58.94
67397;BME280;57728;50.448;18.824;2023-02-28T05:59:59;99083.56;;;-1.06;59.05
67397;BME280;57728;50.448;18.824;2023-02-28T06:02:00;99135.72;;;-0.70;59.01
67397;BME280;57728;50.448;18.824;2023-02-28T06:04:04;98978.16;;;-1.65;58.72
67397;BME280;57728;50.448;18.824;2023-02-28T06:06:08;99144.22;;;-0.64;58.78
67397;BME280;57728;50.448;18.824;2023-02-28T06:08:09;98979.69;;;-1.63;58.77
67397;BME280;57728;50.448;18.824;2023-02-28T06:10:11;99102.34;;;-0.96;58.67
67397;BME280;57728;50.448;18.824;2023-02-28T06:12:14;98979.34;;;-1.58;58.47
67397;BME280;57728;50.448;18.824;2023-02-28T06:14:19;99094.53;;;-0.88;58.41
67397;BME280;57728;50.448;18.824;2023-02-28T06:16:22;99007.78;;;-1.47;58.32
67397;BME280;57728;50.448;18.824;2023-02-28T06:18:26;98970.78;;;-1.73;58.09
67397;BME280;57728;50.448;18.824;2023-02-28T06:20:27;99100.97;;;-0.91;58.35
67397;BME280;57728;50.448;18.824;2023-02-28T06:22:33;99110.63;;;-0.78;58.19
67397;BME280;57728;50.448;18.824;2023-02-28T06:24:37;99175.56;;;-0.45;58.22
67397;BME280;57728;50.448;18.824;2023-02-28T06:26:38;99132.94;;;-0.68;58.04
67397;BME280;57728;50.448;18.824;2023-02-28T06:28:41;98979.56;;;-1.61;58.10
67397;BME280;57728;50.448;18.824;2023-02-28T06:30:44;98965.91;;;-1.68;58.07
67397;BME280;57728;50.448;18.824;2023-02-28T06:32:45;98896.88;;;-2.15;57.89
67397;BME280;57728;50.448;18.824;2023-02-28T06:34:50;99137.72;;;-0.72;57.84
67397;BME280;57728;50.448;18.824;2023-02-28T06:36:52;99099.66;;;-0.75;57.74
67397;BME280;57728;50.448;18.824;2023-02-28T06:38:54;99109.13;;;-0.71;57.39
67397;BME280;57728;50.448;18.824;2023-02-28T06:40:58;99165.66;;;-0.33;57.30
67397;BME280;57728;50.448;18.824;2023-02-28T06:43:02;99108.69;;;-0.76;57.14
67397;BME280;57728;50.448;18.824;2023-02-28T06:45:04;99110.81;;;-0.70;57.26
67397;BME280;57728;50.448;18.824;2023-02-28T06:47:10;99189.19;;;-0.27;57.39
67397;BME280;57728;50.448;18.824;2023-02-28T06:49:14;99162.94;;;-0.43;57.39
67397;BME280;57728;50.448;18.824;2023-02-28T06:51:19;99050.59;;;-0.95;57.19
67397;BME280;57728;50.448;18.824;2023-02-28T06:53:23;99112.75;;;-0.51;57.16
67397;BME280;57728;50.448;18.824;2023-02-28T06:55:27;99067.19;;;-0.71;56.90
67397;BME280;57728;50.448;18.824;2023-02-28T06:57:33;99175.81;;;0.04;56.93
67397;BME280;57728;50.448;18.824;2023-02-28T06:59:36;98989.19;;;-1.07;56.66
67397;BME280;57728;50.448;18.824;2023-02-28T07:01:39;99057.44;;;-0.50;56.51
67397;BME280;57728;50.448;18.824;2023-02-28T07:03:40;98991.97;;;-0.87;56.30
67397;BME280;57728;50.448;18.824;2023-02-28T07:05:42;99190.13;;;0.33;56.23
67397;BME280;57728;50.448;18.824;2023-02-28T07:07:44;99174.50;;;0.39;56.23
67397;BME280;57728;50.448;18.824;2023-02-28T07:09:47;99197.38;;;0.43;56.05
67397;BME280;57728;50.448;18.824;2023-02-28T07:11:49;99181.84;;;0.46;55.92
67397;BME280;57728;50.448;18.824;2023-02-28T07:13:54;99170.72;;;0.51;55.65
67397;BME280;57728;50.448;18.824;2023-02-28T07:16:02;99185.97;;;0.60;55.48
67397;BME280;57728;50.448;18.824;2023-02-28T07:18:07;99005.19;;;-0.45;55.26
67397;BME280;57728;50.448;18.824;2023-02-28T07:20:10;99062.50;;;0.03;55.24
67397;BME280;57728;50.448;18.824;2023-02-28T07:22:12;98967.75;;;-0.45;55.28
67397;BME280;57728;50.448;18.824;2023-02-28T07:24:13;99183.19;;;0.91;54.91
67397;BME280;57728;50.448;18.824;2023-02-28T07:26:19;99113.16;;;0.55;54.89
67397;BME280;57728;50.448;18.824;2023-02-28T07:28:21;98945.50;;;-0.36;54.65
67397;BME280;57728;50.448;18.824;2023-02-28T07:30:23;99033.59;;;0.07;54.70
67397;BME280;57728;50.448;18.824;2023-02-28T07:32:26;99113.59;;;0.80;54.72
67397;BME280;57728;50.448;18.824;2023-02-28T07:34:27;99091.47;;;0.78;54.62
67397;BME280;57728;50.448;18.824;2023-02-28T07:36:28;99050.84;;;0.43;54.18
67397;BME280;57728;50.448;18.824;2023-02-28T07:38:34;99183.84;;;1.42;54.39
67397;BME280;57728;50.448;18.824;2023-02-28T07:40:36;99169.59;;;1.42;54.18
67397;BME280;57728;50.448;18.824;2023-02-28T07:42:40;99195.53;;;1.61;53.89
67397;BME280;57728;50.448;18.824;2023-02-28T07:44:47;99116.66;;;1.24;53.49
67397;BME280;57728;50.448;18.824;2023-02-28T07:46:49;99180.50;;;1.78;53.77
67397;BME280;57728;50.448;18.824;2023-02-28T07:48:51;99157.78;;;1.62;53.42
67397;BME280;57728;50.448;18.824;2023-02-28T07:50:58;99085.84;;;1.28;52.80
67397;BME280;57728;50.448;18.824;2023-02-28T07:53:01;99171.69;;;1.95;52.80
67397;BME280;57728;50.448;18.824;2023-02-28T07:55:03;99052.41;;;1.23;52.61
67397;BME280;57728;50.448;18.824;2023-02-28T07:57:08;99105.50;;;1.66;52.41
67397;BME280;57728;50.448;18.824;2023-02-28T07:59:10;98919.66;;;0.61;52.29
67397;BME280;57728;50.448;18.824;2023-02-28T08:01:12;99155.66;;;2.03;52.05
67397;BME280;57728;50.448;18.824;2023-02-28T08:03:17;99180.25;;;2.36;52.15
67397;BME280;57728;50.448;18.824;2023-02-28T08:05:20;99016.31;;;1.45;51.96
67397;BME280;57728;50.448;18.824;2023-02-28T08:07:22;99092.94;;;1.95;51.68
67397;BME280;57728;50.448;18.824;2023-02-28T08:09:27;99092.72;;;2.06;51.18
67397;BME280;57728;50.448;18.824;2023-02-28T08:11:28;99163.41;;;2.62;51.24
67397;BME280;57728;50.448;18.824;2023-02-28T08:13:30;99059.41;;;1.99;50.92
67397;BME280;57728;50.448;18.824;2023-02-28T08:15:32;99181.78;;;2.85;51.06
67397;BME280;57728;50.448;18.824;2023-02-28T08:17:34;99177.25;;;3.03;50.62
67397;BME280;57728;50.448;18.824;2023-02-28T08:19:35;98906.38;;;1.53;50.21
67397;BME280;57728;50.448;18.824;2023-02-28T08:21:37;99174.06;;;3.26;49.92
67397;BME280;57728;50.448;18.824;2023-02-28T08:23:39;99110.38;;;2.90;49.68
67397;BME280;57728;50.448;18.824;2023-02-28T08:25:40;99153.00;;;3.39;49.93
67397;BME280;57728;50.448;18.824;2023-02-28T08:27:43;99138.94;;;3.54;49.31
67397;BME280;57728;50.448;18.824;2023-02-28T08:29:44;99126.66;;;3.51;48.62
67397;BME280;57728;50.448;18.824;2023-02-28T08:31:46;99092.41;;;3.35;48.60
67397;BME280;57728;50.448;18.824;2023-02-28T08:33:48;99131.88;;;3.53;48.07
67397;BME280;57728;50.448;18.824;2023-02-28T08:35:53;99177.91;;;3.94;48.31
67397;BME280;57728;50.448;18.824;2023-02-28T08:37:55;99183.22;;;4.12;48.40
67397;BME280;57728;50.448;18.824;2023-02-28T08:39:57;99187.16;;;4.26;47.27
67397;BME280;57728;50.448;18.824;2023-02-28T08:41:59;99127.50;;;4.21;47.10
67397;BME280;57728;50.448;18.824;2023-02-28T08:44:00;99129.78;;;4.50;46.79
67397;BME280;57728;50.448;18.824;2023-02-28T08:46:04;99063.31;;;4.33;46.37
67397;BME280;57728;50.448;18.824;2023-02-28T08:48:06;99168.16;;;5.28;46.45
67397;BME280;57728;50.448;18.824;2023-02-28T08:50:08;99026.28;;;4.51;45.38
67397;BME280;57728;50.448;18.824;2023-02-28T08:52:12;99109.78;;;4.94;44.89
67397;BME280;57728;50.448;18.824;2023-02-28T08:54:13;99128.31;;;5.05;44.78
67397;BME280;57728;50.448;18.824;2023-02-28T08:56:21;99128.28;;;4.80;44.81
67397;BME280;57728;50.448;18.824;2023-02-28T08:58:23;99082.53;;;4.38;44.83
67397;BME280;57728;50.448;18.824;2023-02-28T09:00:25;99155.75;;;4.68;44.93
67397;BME280;57728;50.448;18.824;2023-02-28T09:02:26;99094.94;;;4.06;45.33
67397;BME280;57728;50.448;18.824;2023-02-28T09:04:29;99002.53;;;3.36;45.48
67397;BME280;57728;50.448;18.824;2023-02-28T09:06:32;99100.22;;;3.81;45.66
67397;BME280;57728;50.448;18.824;2023-02-28T09:08:34;99116.38;;;3.81;45.83
67397;BME280;57728;50.448;18.824;2023-02-28T09:10:38;99142.63;;;3.79;45.86
67397;BME280;57728;50.448;18.824;2023-02-28T09:12:40;99173.16;;;3.88;45.78
67397;BME280;57728;50.448;18.824;2023-02-28T09:14:41;99192.56;;;4.00;45.84
67397;BME280;57728;50.448;18.824;2023-02-28T09:16:43;99122.69;;;3.64;46.05
67397;BME280;57728;50.448;18.824;2023-02-28T09:18:45;99097.06;;;3.94;46.28
67397;BME280;57728;50.448;18.824;2023-02-28T09:20:46;99144.44;;;4.56;45.69
67397;BME280;57728;50.448;18.824;2023-02-28T09:22:48;99192.41;;;5.03;45.42
67397;BME280;57728;50.448;18.824;2023-02-28T09:24:50;99056.06;;;4.25;44.92
67397;BME280;57728;50.448;18.824;2023-02-28T09:26:51;99151.44;;;4.99;44.70
67397;BME280;57728;50.448;18.824;2023-02-28T09:28:54;99135.75;;;4.87;44.54
67397;BME280;57728;50.448;18.824;2023-02-28T09:30:57;99135.19;;;4.75;44.69
67397;BME280;57728;50.448;18.824;2023-02-28T09:32:59;99190.59;;;5.04;44.70
67397;BME280;57728;50.448;18.824;2023-02-28T09:35:02;98979.91;;;3.55;44.04
67397;BME280;57728;50.448;18.824;2023-02-28T09:37:03;99194.06;;;4.88;44.71
67397;BME280;57728;50.448;18.824;2023-02-28T09:39:05;99162.53;;;4.80;44.56
67397;BME280;57728;50.448;18.824;2023-02-28T09:41:21;99035.13;;;4.02;44.54
67397;BME280;57728;50.448;18.824;2023-02-28T09:43:33;99078.38;;;4.52;44.41
67397;BME280;57728;50.448;18.824;2023-02-28T09:45:46;99186.19;;;5.44;44.29
67397;BME280;57728;50.448;18.824;2023-02-28T09:48:10;99081.59;;;4.80;43.87
67397;BME280;57728;50.448;18.824;2023-02-28T09:50:28;99188.59;;;5.39;43.53
67397;BME280;57728;50.448;18.824;2023-02-28T09:52:33;99184.72;;;5.33;43.53
67397;BME280;57728;50.448;18.824;2023-02-28T09:54:36;99174.91;;;5.15;43.60
67397;BME280;57728;50.448;18.824;2023-02-28T09:56:41;99086.00;;;4.89;43.79
67397;BME280;57728;50.448;18.824;2023-02-28T10:03:49;99168.78;;;5.71;43.06
67397;BME280;57728;50.448;18.824;2023-02-28T10:08:35;99192.44;;;7.28;42.79
67397;BME280;57728;50.448;18.824;2023-02-28T10:10:58;99034.50;;;7.57;41.64
67397;BME280;57728;50.448;18.824;2023-02-28T10:13:15;99176.78;;;9.45;40.52
67397;BME280;57728;50.448;18.824;2023-02-28T10:15:58;99133.38;;;10.22;39.28
67397;BME280;57728;50.448;18.824;2023-02-28T10:18:21;99125.09;;;11.06;38.62
67397;BME280;57728;50.448;18.824;2023-02-28T10:20:31;99145.25;;;11.72;37.24
67397;BME280;57728;50.448;18.824;2023-02-28T10:25:21;99146.50;;;12.16;35.67
67397;BME280;57728;50.448;18.824;2023-02-28T10:27:31;99152.97;;;12.21;34.54
67397;BME280;57728;50.448;18.824;2023-02-28T10:29:34;99058.00;;;11.38;34.46
67397;BME280;57728;50.448;18.824;2023-02-28T10:31:38;99166.22;;;11.91;34.62
67397;BME280;57728;50.448;18.824;2023-02-28T10:33:40;99029.91;;;11.17;34.65
67397;BME280;57728;50.448;18.824;2023-02-28T10:35:43;99049.84;;;11.38;34.43
67397;BME280;57728;50.448;18.824;2023-02-28T10:37:47;99017.91;;;11.52;33.33
67397;BME280;57728;50.448;18.824;2023-02-28T10:39:50;99074.28;;;11.98;33.76
67397;BME280;57728;50.448;18.824;2023-02-28T10:41:53;99123.97;;;12.27;33.11
67397;BME280;57728;50.448;18.824;2023-02-28T10:44:13;99159.63;;;12.46;32.63
67397;BME280;57728;50.448;18.824;2023-02-28T10:46:21;99106.44;;;11.96;32.92
67397;BME280;57728;50.448;18.824;2023-02-28T10:50:46;99160.00;;;12.49;33.10
67397;BME280;57728;50.448;18.824;2023-02-28T10:52:55;99157.63;;;12.66;32.98
67397;BME280;57728;50.448;18.824;2023-02-28T10:55:22;99165.69;;;12.48;31.76
67397;BME280;57728;50.448;18.824;2023-02-28T10:57:26;99026.56;;;11.22;32.01
67397;BME280;57728;50.448;18.824;2023-02-28T10:59:30;99155.34;;;11.78;31.94
67397;BME280;57728;50.448;18.824;2023-02-28T11:01:42;99048.13;;;10.97;32.44
67397;BME280;57728;50.448;18.824;2023-02-28T11:03:46;99150.50;;;11.53;32.53
67397;BME280;57728;50.448;18.824;2023-02-28T11:05:48;99113.56;;;11.30;32.41
67397;BME280;57728;50.448;18.824;2023-02-28T11:07:53;99155.97;;;11.40;31.94
67397;BME280;57728;50.448;18.824;2023-02-28T11:09:57;99060.63;;;10.44;32.43
67397;BME280;57728;50.448;18.824;2023-02-28T11:12:00;99166.75;;;10.86;32.10
67397;BME280;57728;50.448;18.824;2023-02-28T11:14:22;99030.03;;;9.87;32.35
67397;BME280;57728;50.448;18.824;2023-02-28T11:16:37;99144.81;;;10.46;32.16
67397;BME280;57728;50.448;18.824;2023-02-28T11:20:55;99085.38;;;10.14;32.92
67397;BME280;57728;50.448;18.824;2023-02-28T11:23:03;99143.34;;;11.12;32.72
67397;BME280;57728;50.448;18.824;2023-02-28T11:27:26;99095.44;;;12.16;32.06
67397;BME280;57728;50.448;18.824;2023-02-28T11:29:31;99021.09;;;12.14;31.48
67397;BME280;57728;50.448;18.824;2023-02-28T11:31:34;99132.41;;;13.10;31.05
67397;BME280;57728;50.448;18.824;2023-02-28T11:33:53;99122.53;;;13.34;30.86
67397;BME280;57728;50.448;18.824;2023-02-28T11:38:26;99121.91;;;14.44;30.48
67397;BME280;57728;50.448;18.824;2023-02-28T11:52:50;99112.28;;;17.09;27.25
67397;BME280;57728;50.448;18.824;2023-02-28T11:57:39;99113.09;;;16.93;26.11
67397;BME280;57728;50.448;18.824;2023-02-28T12:02:22;99013.88;;;16.25;26.16
67397;BME280;57728;50.448;18.824;2023-02-28T12:05:04;99040.19;;;16.49;25.70
67397;BME280;57728;50.448;18.824;2023-02-28T12:07:41;99098.94;;;17.01;25.93
67397;BME280;57728;50.448;18.824;2023-02-28T12:10:22;99094.28;;;17.18;25.84
67397;BME280;57728;50.448;18.824;2023-02-28T12:12:44;99032.25;;;16.94;25.69
67397;BME280;57728;50.448;18.824;2023-02-28T12:20:39;99091.31;;;18.49;24.39
67397;BME280;57728;50.448;18.824;2023-02-28T12:23:23;99084.41;;;18.74;24.47
67397;BME280;57728;50.448;18.824;2023-02-28T12:28:19;99068.75;;;19.07;23.93
67397;BME280;57728;50.448;18.824;2023-02-28T12:30:35;99083.06;;;18.99;23.44